首页
METAR-TAF:

METAR-TAF

机场 :

科珀斯克里斯蒂, 得克萨斯州, 美国

纬度: 27-41-19N, 经度: 097-17-30W, 海拔: 5米

当前天气观测

该预报发布于27分钟前的22:56 UTC
风速14节,风向东转东南
温度 28°C
湿度 74%
气压 1016 hPa
能見度: 16.1公里
散云层高于1100英尺

METAR: KNGP 242256Z 12014KT 10SM SCT011 28/23 A3001 RMK AO2 SLP162 T02830228 $

时间: 18:23 (23:23 UTC)

预报

预报有效从24日的 23点(UTC)到 25日的 23点(UTC)
风速16节,风向东南
能见度10公里或以上
散云层高于1000英尺
短暂存在
从 24日的 23点(UTC)到 25日的 03点(UTC)
风速18节,风向东南,有时为25节阵风
多云层高于1000英尺
从 25日的 0300点(UTC)
风速14节,风向南转南东
能见度10公里或以上
多云层高于700英尺
从 25日的 1600点(UTC)
风速18节,风向东南,有时为26节阵风
能见度10公里或以上
多云层高于1500英尺
多云层高于25000英尺
从 25日的 1900点(UTC)
风速22节,风向东南,有时为30节阵风
能見度: 2511
少量云层高于1000英尺
散云层高于2500英尺
多云层高于25000英尺

TAF: KNGP 2423/2523 13016KT 9999 SCT010 QNH2998INS TEMPO 2423/2503 13018G25KT BKN010 FM250300 15014KT 9999 BKN007 QNH2999INS FM251600 14018G26KT 9999 BKN015 BKN250 510005 QNH2992INS FM251900 14022G30KT 9999 FEW010 SCT025 BKN250 510005 QNH2984INS AUTOMATED SENSOR METWATCH 2504 TIL 2511 TX29/2520Z TN24/2512Z FN20081

超过4000个机场的气象观测和天气预报(METAR&TAF报告)。

可查询的气象台以黄色和红色小点在地图上表示。

将鼠标移到小点上方,可查看气象台名称。

然后点击查看天气观测和预报。

如需切换地图:点击带黑十字的绿色按钮放大地图;点击带横线的绿色按钮缩小地图;或者点击绿色箭头查看邻近地区的地图。


METAR-TAF: